Terminal Aerodrome Forecast
Issued by NWS

Home | Current Version | Previous Version | Graphics & Text | Print | Product List | Glossary On
Versions: 1 2 3 4 5 6 7 8 9 10 11 12 13 14 15 16 17 18
000
FTUS43 KGRB 210903 AAA
TAFRHI
TAF AMD
KRHI 210903Z 2109/2206 19009KT P6SM OVC006 WS012/23035KT
      TEMPO 2109/2111 6SM BR BKN004
     FM211100 17009KT P6SM OVC006 WS012/23035KT
      TEMPO 2111/2115 31030G45KT 1SM TSRA BR BKN004CB
     FM211600 22009G16KT P6SM BKN012
     FM211800 23011G22KT P6SM SCT030
     FM220200 24003KT 5SM BR SCT250=

USA.gov is the U.S. government's official web portal to all federal, state and local government web resources and services.